Time;durP1;ratioP1;P1;durP2;ratioP2;P2;SDS_P1;SDS_P2;PMS_P1;PMS_P2;Temp;Humidity;BMP_temperature;BMP_pressure;BME280_temperature;BME280_humidity;BME280_pressure;Samples;Min_cycle;Max_cycle;Signal;HPM_P1;HPM_P2
2022/03/21 00:00:45;;;;;;;10.77;3.90;;;;;;;5.30;64.03;101365.47;5106559;28;20027;-58
2022/03/21 00:03:12;;;;;;;9.77;3.72;;;;;;;5.29;64.35;101367.19;5106615;28;20089;-59
2022/03/21 00:05:38;;;;;;;8.02;3.22;;;;;;;5.22;63.85;101359.28;5106538;28;20038;-59
2022/03/21 00:08:04;;;;;;;10.35;3.95;;;;;;;5.26;64.77;101368.78;5106270;28;20249;-59
2022/03/21 00:10:33;;;;;;;11.90;3.65;;;;;;;5.27;64.11;101368.84;5106304;28;20028;-59
2022/03/21 00:12:59;;;;;;;12.15;3.70;;;;;;;5.24;63.76;101363.59;5122099;28;20051;-59
2022/03/21 00:15:25;;;;;;;10.48;3.63;;;;;;;5.23;64.70;101361.88;5106031;28;20035;-60
2022/03/21 00:17:51;;;;;;;8.23;3.97;;;;;;;5.15;64.67;101355.66;5106171;28;20036;-59
2022/03/21 00:20:16;;;;;;;7.82;3.88;;;;;;;5.12;64.86;101342.75;5106108;28;20028;-60
2022/03/21 00:22:42;;;;;;;9.02;3.75;;;;;;;5.09;64.36;101337.50;5106213;28;20052;-60
2022/03/21 00:25:09;;;;;;;12.68;4.00;;;;;;;5.22;64.10;101355.00;5106130;28;20032;-59
2022/03/21 00:27:36;;;;;;;8.27;3.65;;;;;;;5.13;65.08;101360.75;5106082;28;20024;-58
2022/03/21 00:30:04;;;;;;;8.25;3.78;;;;;;;5.13;64.50;101355.63;5104810;28;20099;-59
2022/03/21 00:32:30;;;;;;;9.98;4.15;;;;;;;5.09;64.93;101338.38;5105912;28;20024;-59
2022/03/21 00:34:55;;;;;;;13.55;4.38;;;;;;;5.06;65.49;101334.84;5105947;28;20083;-59
2022/03/21 00:37:23;;;;;;;10.07;3.85;;;;;;;5.14;65.06;101339.38;5105815;28;20339;-59
2022/03/21 00:39:51;;;;;;;10.88;3.63;;;;;;;5.09;64.68;101342.63;5105521;28;20043;-57
2022/03/21 00:42:17;;;;;;;7.63;3.58;;;;;;;5.09;65.34;101340.06;5105710;28;20099;-59
2022/03/21 00:44:42;;;;;;;8.93;3.38;;;;;;;4.98;65.80;101344.91;5096712;28;20080;-59
2022/03/21 00:47:08;;;;;;;9.73;3.00;;;;;;;4.87;65.34;101318.94;5105272;28;20028;-58
2022/03/21 00:49:33;;;;;;;11.98;3.88;;;;;;;5.06;65.65;101347.69;5105387;28;20309;-59
2022/03/21 00:51:59;;;;;;;13.35;4.63;;;;;;;5.06;65.58;101347.69;5105059;28;20035;-60
2022/03/21 00:54:25;;;;;;;10.20;3.13;;;;;;;4.99;65.11;101344.97;5105370;28;20039;-59
2022/03/21 00:56:51;;;;;;;9.48;3.90;;;;;;;4.95;65.88;101345.69;5104276;28;20032;-59
2022/03/21 00:59:16;;;;;;;9.65;4.05;;;;;;;4.94;66.10;101341.38;5105396;28;20027;-58
2022/03/21 01:01:42;;;;;;;14.82;4.90;;;;;;;4.97;65.72;101345.72;5105228;28;20024;-58
2022/03/21 01:04:08;;;;;;;9.07;3.97;;;;;;;4.92;66.08;101334.47;5104013;28;20053;-59
2022/03/21 01:06:35;;;;;;;12.27;4.75;;;;;;;4.88;65.62;101338.66;5105194;28;20020;-59
2022/03/21 01:09:01;;;;;;;9.27;4.20;;;;;;;4.81;65.96;101326.47;5105103;28;20223;-59
2022/03/21 01:11:27;;;;;;;13.27;4.57;;;;;;;4.88;65.58;101325.81;5105246;28;20058;-58
2022/03/21 01:13:53;;;;;;;10.80;4.65;;;;;;;4.89;66.00;101324.09;5105134;28;20032;-58
2022/03/21 01:16:18;;;;;;;13.57;5.78;;;;;;;4.85;65.73;101328.28;5104979;28;20020;-57
2022/03/21 01:18:47;;;;;;;10.75;5.30;;;;;;;4.73;66.79;101331.38;5104802;28;20020;-58
2022/03/21 01:21:13;;;;;;;8.65;5.20;;;;;;;4.72;66.62;101327.06;5105031;28;20042;-58
2022/03/21 01:23:39;;;;;;;10.70;5.80;;;;;;;4.70;67.31;101327.84;5105033;28;20024;-58
2022/03/21 01:26:05;;;;;;;14.60;6.50;;;;;;;4.63;66.48;101311.38;5105073;28;20016;-58
2022/03/21 01:28:31;;;;;;;15.13;6.88;;;;;;;4.65;66.93;101328.56;5103545;28;20032;-59
2022/03/21 01:30:56;;;;;;;13.75;6.88;;;;;;;4.63;66.93;101325.13;5085048;28;20075;-60
2022/03/21 01:33:22;;;;;;;17.55;6.63;;;;;;;4.64;67.23;101324.25;5084391;28;20025;-59
2022/03/21 01:35:47;;;;;;;14.18;6.28;;;;;;;4.68;66.64;101325.25;5092467;28;20016;-59
2022/03/21 01:38:13;;;;;;;10.50;5.32;;;;;;;4.66;67.30;101327.75;5104610;28;20295;-58
2022/03/21 01:40:39;;;;;;;10.88;5.20;;;;;;;4.66;67.00;101320.06;5104696;28;20190;-59
2022/03/21 01:43:11;;;;;;;13.65;4.70;;;;;;;4.69;67.01;101314.16;5104557;28;20034;-59
2022/03/21 01:45:39;;;;;;;9.38;4.50;;;;;;;4.68;66.91;101307.28;5104522;28;20020;-58
2022/03/21 01:48:05;;;;;;;9.23;4.57;;;;;;;4.62;67.40;101315.66;5103005;28;20292;-59
2022/03/21 01:50:31;;;;;;;12.65;4.50;;;;;;;4.61;66.81;101331.88;5104393;28;20032;-57
2022/03/21 01:55:43;;;;;;;11.05;4.45;;;;;;;4.66;66.89;101343.16;5104213;28;20032;-58
2022/03/21 01:58:09;;;;;;;13.45;4.07;;;;;;;4.57;67.41;101330.03;5103405;28;20198;-59
2022/03/21 02:00:35;;;;;;;9.95;3.67;;;;;;;4.56;67.73;101337.69;5103907;28;20039;-58
2022/03/21 02:03:00;;;;;;;11.95;4.60;;;;;;;4.54;67.78;101335.09;5104381;28;20083;-58
2022/03/21 02:05:27;;;;;;;9.55;3.90;;;;;;;4.55;67.36;101351.38;5104115;28;20047;-58
2022/03/21 02:07:53;;;;;;;11.77;4.07;;;;;;;4.55;67.24;101333.41;5103850;28;20380;-58
2022/03/21 02:10:19;;;;;;;9.15;3.28;;;;;;;4.51;67.99;101326.44;5103955;28;20028;-57
2022/03/21 02:12:45;;;;;;;11.95;3.67;;;;;;;4.44;68.12;101325.38;5104000;28;20039;-58
2022/03/21 02:15:12;;;;;;;10.95;4.30;;;;;;;4.41;67.62;101305.63;5103872;28;20043;-58
2022/03/21 02:17:41;;;;;;;10.25;3.88;;;;;;;4.06;68.19;101261.84;5102708;28;20194;-59
2022/03/21 02:20:07;;;;;;;12.38;3.70;;;;;;;4.40;68.07;101315.84;5104041;28;20057;-59
2022/03/21 02:22:58;;;;;;;9.45;3.33;;;;;;;4.27;69.25;101317.16;5103833;28;20332;-58
2022/03/21 02:25:33;;;;;;;13.10;3.53;;;;;;;4.10;68.85;101314.94;5103717;28;20027;-58
2022/03/21 02:28:01;;;;;;;16.05;3.70;;;;;;;4.14;68.89;101301.38;5103673;28;20209;-58
2022/03/21 02:30:29;;;;;;;10.18;3.28;;;;;;;4.32;68.46;101333.56;5103660;28;20292;-58
2022/03/21 02:32:56;;;;;;;10.98;3.90;;;;;;;4.27;68.81;101330.84;5103436;28;20072;-58
2022/03/21 02:35:22;;;;;;;6.55;3.15;;;;;;;4.29;69.24;101330.88;5103584;28;20020;-58
2022/03/21 02:37:48;;;;;;;12.63;3.80;;;;;;;4.23;69.17;101312.75;5103418;28;20034;-59
2022/03/21 02:40:15;;;;;;;9.10;3.80;;;;;;;4.37;68.51;101337.13;5103349;28;20086;-59
2022/03/21 02:42:41;;;;;;;10.27;3.70;;;;;;;4.19;69.01;101334.00;5103390;28;20032;-59
2022/03/21 02:45:06;;;;;;;11.40;3.80;;;;;;;4.07;68.51;101289.22;5102050;28;20036;-60
2022/03/21 02:47:32;;;;;;;10.73;3.88;;;;;;;4.27;69.13;101325.72;5101505;28;20059;-58
2022/03/21 02:50:00;;;;;;;11.80;4.40;;;;;;;4.13;68.93;101324.41;5101712;28;20031;-60
2022/03/21 02:52:28;;;;;;;10.30;3.80;;;;;;;3.98;69.17;101284.66;5100383;28;20020;-59
2022/03/21 02:54:53;;;;;;;8.05;3.65;;;;;;;4.21;69.60;101315.28;5102841;28;20252;-58
2022/03/21 02:57:19;;;;;;;13.88;4.35;;;;;;;4.25;69.57;101324.81;5101834;28;20020;-60
2022/03/21 02:59:45;;;;;;;13.63;4.28;;;;;;;4.24;69.59;101307.69;5103040;28;20032;-59
2022/03/21 03:02:10;;;;;;;12.48;3.88;;;;;;;4.32;69.13;101323.31;5103251;28;20020;-58
2022/03/21 03:04:36;;;;;;;10.27;3.47;;;;;;;4.27;69.45;101322.28;5103230;28;20031;-59
2022/03/21 03:07:02;;;;;;;13.07;4.22;;;;;;;4.17;69.35;101307.44;5103213;28;20043;-59
2022/03/21 03:09:28;;;;;;;16.63;4.97;;;;;;;4.26;68.93;101315.41;5102767;28;20090;-58
2022/03/21 03:11:53;;;;;;;11.10;4.13;;;;;;;4.19;69.55;101316.94;5101833;28;20051;-58
2022/03/21 03:14:19;;;;;;;11.07;4.35;;;;;;;4.23;68.60;101312.75;5103154;28;20288;-59
2022/03/21 03:16:45;;;;;;;15.20;5.32;;;;;;;4.07;70.30;101321.66;5103005;28;20336;-59
2022/03/21 03:19:10;;;;;;;14.10;4.43;;;;;;;4.12;69.72;101315.88;5102900;28;20020;-59
2022/03/21 03:21:41;;;;;;;13.38;4.40;;;;;;;4.21;69.35;101338.34;5103125;28;20039;-59
2022/03/21 03:24:09;;;;;;;11.20;4.45;;;;;;;4.06;70.06;101319.91;5102943;28;20059;-59
2022/03/21 03:26:34;;;;;;;13.00;4.20;;;;;;;4.10;69.26;101302.13;5102988;28;20031;-59
2022/03/21 03:29:00;;;;;;;12.90;4.10;;;;;;;4.07;69.71;101306.28;5102779;28;20050;-58
2022/03/21 03:31:26;;;;;;;12.40;4.30;;;;;;;4.10;69.76;101301.25;5102972;28;20035;-59
2022/03/21 03:33:52;;;;;;;11.00;4.28;;;;;;;4.11;69.27;101301.31;5102952;28;20321;-60
2022/03/21 03:36:17;;;;;;;10.98;3.63;;;;;;;4.02;69.00;101300.13;5102962;28;20024;-59
2022/03/21 03:38:44;;;;;;;13.85;4.13;;;;;;;4.08;70.38;101306.34;5101507;28;20029;-58
2022/03/21 03:41:10;;;;;;;11.50;4.18;;;;;;;4.03;70.21;101300.19;5102734;28;20027;-59
2022/03/21 03:43:36;;;;;;;12.82;4.20;;;;;;;4.07;69.56;101296.03;5102788;28;20040;-60
2022/03/21 03:46:03;;;;;;;13.13;4.43;;;;;;;4.01;70.53;101286.47;5101466;28;20295;-58
2022/03/21 03:48:28;;;;;;;10.82;4.07;;;;;;;3.95;69.80;101304.22;5102679;28;20035;-59
2022/03/21 03:50:54;;;;;;;10.10;3.70;;;;;;;4.02;69.95;101302.69;5102719;28;20024;-58
2022/03/21 03:53:20;;;;;;;14.38;4.13;;;;;;;4.06;70.43;101292.63;5102636;28;20098;-60
2022/03/21 03:55:45;;;;;;;14.38;4.38;;;;;;;3.88;70.88;101298.00;5102674;28;20062;-59
2022/03/21 03:58:11;;;;;;;15.20;7.22;;;;;;;3.99;70.72;101285.56;5101272;28;20031;-58
2022/03/21 04:00:37;;;;;;;12.48;4.05;;;;;;;3.99;70.69;101295.81;5102371;28;20031;-59
2022/03/21 04:05:49;;;;;;;9.60;3.63;;;;;;;4.09;69.62;101302.97;5102584;28;20027;-60
2022/03/21 04:08:15;;;;;;;10.38;3.42;;;;;;;4.14;69.47;101298.81;5102378;28;20032;-59
2022/03/21 04:10:40;;;;;;;11.98;3.97;;;;;;;4.08;69.76;101290.97;5102247;28;20086;-60
2022/03/21 04:13:06;;;;;;;8.60;3.95;;;;;;;4.07;70.46;101299.47;5102598;28;20321;-60
2022/03/21 04:15:32;;;;;;;12.13;4.25;;;;;;;4.03;69.97;101301.88;5102369;28;20024;-60
2022/03/21 04:18:02;;;;;;;15.07;4.50;;;;;;;4.08;69.65;101314.03;5102327;28;20047;-60
2022/03/21 04:20:29;;;;;;;9.75;4.20;;;;;;;3.96;69.57;101288.88;5103906;28;20047;-60
2022/03/21 04:22:55;;;;;;;9.95;4.47;;;;;;;4.07;70.01;101298.59;5106014;28;20020;-60
2022/03/21 04:25:21;;;;;;;13.80;4.35;;;;;;;4.08;69.95;101292.66;5105748;28;20055;-60
2022/03/21 04:27:46;;;;;;;16.73;4.72;;;;;;;4.12;69.26;101297.06;5106023;28;20086;-60
2022/03/21 04:30:12;;;;;;;15.93;4.97;;;;;;;4.17;69.19;101310.03;5105840;28;20058;-60
2022/03/21 04:32:37;;;;;;;15.05;5.93;;;;;;;4.18;69.16;101309.19;5105975;28;20024;-60
2022/03/21 04:35:04;;;;;;;12.77;4.88;;;;;;;4.08;70.20;101300.34;5105716;28;20035;-61
2022/03/21 04:37:30;;;;;;;17.30;5.68;;;;;;;4.13;69.46;101293.66;5105793;28;20120;-61
2022/03/21 04:39:55;;;;;;;14.40;4.47;;;;;;;4.16;69.20;101286.06;5105650;28;20288;-61
2022/03/21 04:42:22;;;;;;;13.77;4.90;;;;;;;4.18;69.32;101297.25;5105752;28;20119;-60
2022/03/21 04:44:50;;;;;;;15.73;5.50;;;;;;;4.17;69.80;101295.50;5105597;28;20028;-61
2022/03/21 04:47:17;;;;;;;14.65;5.30;;;;;;;4.18;69.80;101293.81;5105601;28;20216;-60
2022/03/21 04:49:43;;;;;;;20.30;5.85;;;;;;;4.19;69.72;101296.44;5104313;28;20251;-59
2022/03/21 04:52:09;;;;;;;15.55;4.88;;;;;;;4.27;69.31;101294.09;5105347;28;20070;-59
2022/03/21 04:54:35;;;;;;;11.73;4.90;;;;;;;4.27;69.20;101292.38;5085055;28;20048;-59
2022/03/21 04:57:00;;;;;;;14.48;4.72;;;;;;;4.35;68.90;101294.31;5085126;28;20025;-60
2022/03/21 04:59:26;;;;;;;14.68;4.68;;;;;;;4.32;68.80;101295.97;5084850;28;20032;-60
2022/03/21 05:01:52;;;;;;;13.05;3.70;;;;;;;4.45;69.31;101299.78;5084950;28;20039;-60
2022/03/21 05:04:19;;;;;;;11.52;4.80;;;;;;;4.47;68.91;101295.53;5084914;28;20236;-62
2022/03/21 05:06:46;;;;;;;10.60;4.10;;;;;;;4.47;68.87;101286.97;5084929;28;20075;-63
2022/03/21 05:09:11;;;;;;;13.50;4.38;;;;;;;4.53;69.04;101289.72;5101321;28;20336;-62
2022/03/21 05:11:37;;;;;;;8.80;3.92;;;;;;;4.52;69.21;101281.97;5103666;28;20071;-60
2022/03/21 05:14:04;;;;;;;10.07;3.80;;;;;;;4.63;68.49;101286.63;5104800;28;20066;-61
2022/03/21 05:16:29;;;;;;;16.08;4.68;;;;;;;4.77;68.41;101289.56;5104765;28;20321;-62
2022/03/21 05:18:55;;;;;;;13.38;4.25;;;;;;;4.85;67.42;101292.34;5104820;28;20102;-61
2022/03/21 05:21:20;;;;;;;10.73;4.10;;;;;;;4.89;67.25;101289.06;5104582;28;20101;-61
2022/03/21 05:31:59;;;;;;;10.68;4.00;;;;;;;5.16;66.77;101282.94;5104130;28;20031;-60
2022/03/21 05:37:08;;;;;;;11.23;4.30;;;;;;;5.25;65.95;101278.03;5104386;28;20035;-60
2022/03/21 05:39:34;;;;;;;14.00;4.80;;;;;;;5.25;65.92;101285.72;5104361;28;20028;-60
2022/03/21 05:41:59;;;;;;;13.27;3.92;;;;;;;5.44;65.12;101293.91;5104340;28;20028;-59
2022/03/21 05:44:25;;;;;;;10.30;4.13;;;;;;;5.64;65.09;101297.00;5103892;28;20052;-59
2022/03/21 05:46:51;;;;;;;11.05;4.25;;;;;;;5.83;64.06;101298.34;5104206;28;20020;-59
2022/03/21 05:49:17;;;;;;;10.80;3.83;;;;;;;5.95;63.43;101298.59;5104349;28;20028;-59
2022/03/21 05:51:43;;;;;;;14.23;4.05;;;;;;;6.03;63.30;101289.41;5104177;28;20070;-60
2022/03/21 05:54:13;;;;;;;11.18;4.75;;;;;;;5.82;63.22;101281.16;5104195;28;20024;-58
2022/03/21 05:56:41;;;;;;;11.32;3.92;;;;;;;5.94;63.31;101308.84;5104210;28;20026;-59
2022/03/21 06:01:52;;;;;;;10.90;4.25;;;;;;;5.95;62.94;101295.19;5104132;28;20024;-60
2022/03/21 06:04:19;;;;;;;11.18;4.13;;;;;;;5.98;63.25;101293.56;5104188;28;20028;-58
2022/03/21 06:06:45;;;;;;;13.20;4.43;;;;;;;5.82;62.89;101296.59;5102778;28;20038;-59
2022/03/21 06:09:12;;;;;;;11.80;3.92;;;;;;;5.91;62.93;101290.78;5102274;28;20031;-60
2022/03/21 06:11:38;;;;;;;12.88;4.22;;;;;;;5.95;62.71;101293.47;5102140;28;20225;-59
2022/03/21 06:14:04;;;;;;;11.25;4.20;;;;;;;6.18;62.07;101296.59;5101337;28;20043;-60
2022/03/21 06:16:31;;;;;;;11.43;4.32;;;;;;;6.39;61.46;101291.06;5102336;28;20023;-60
2022/03/21 06:18:59;;;;;;;12.20;5.47;;;;;;;7.07;59.67;101283.88;5102757;28;20031;-59
2022/03/21 06:21:25;;;;;;;14.68;5.55;;;;;;;7.72;58.41;101287.56;5101250;28;20028;-61
2022/03/21 06:23:51;;;;;;;12.65;5.20;;;;;;;8.08;56.57;101270.91;5088452;28;20036;-60
2022/03/21 06:26:17;;;;;;;10.60;4.20;;;;;;;8.58;54.62;101272.47;5080646;28;20062;-58
2022/03/21 06:28:43;;;;;;;11.27;4.72;;;;;;;9.72;51.94;101271.06;5080861;28;20051;-60
2022/03/21 06:31:08;;;;;;;11.82;4.53;;;;;;;9.97;50.55;101260.88;5100863;28;20023;-61
2022/03/21 06:33:34;;;;;;;10.68;4.07;;;;;;;10.51;48.82;101267.25;5101490;28;20036;-61
2022/03/21 06:36:02;;;;;;;11.68;4.22;;;;;;;10.93;48.18;101261.34;5093895;28;20032;-61
2022/03/21 06:38:28;;;;;;;9.75;4.32;;;;;;;11.13;47.37;101256.19;5080804;28;20108;-60
2022/03/21 06:40:55;;;;;;;10.73;4.78;;;;;;;11.43;47.23;101263.19;5080705;28;20032;-60
2022/03/21 06:43:22;;;;;;;16.15;4.85;;;;;;;11.29;47.65;101262.31;5078681;28;20052;-60
2022/03/21 06:45:51;;;;;;;9.98;4.78;;;;;;;11.61;46.60;101262.28;5080519;28;20028;-60
2022/03/21 06:48:19;;;;;;;14.45;5.32;;;;;;;11.58;46.62;101245.00;5082635;28;20021;-60
2022/03/21 06:50:48;;;;;;;10.75;4.63;;;;;;;10.77;46.90;101261.28;5078847;28;20024;-60
2022/03/21 06:53:15;;;;;;;9.45;4.30;;;;;;;11.04;46.56;101260.53;5088927;28;20089;-60
2022/03/21 06:55:42;;;;;;;11.52;5.47;;;;;;;11.63;45.57;101257.09;5101552;28;20054;-60
2022/03/21 06:58:11;;;;;;;12.50;4.88;;;;;;;12.22;44.64;101257.94;5100713;28;20067;-60
2022/03/21 07:00:40;;;;;;;12.52;4.72;;;;;;;12.80;42.89;101246.44;5100373;28;20043;-60
2022/03/21 07:03:15;;;;;;;10.90;4.97;;;;;;;13.58;42.27;101265.91;5102015;28;20035;-62
2022/03/21 07:05:41;;;;;;;13.43;5.32;;;;;;;14.19;40.38;101257.50;5084861;28;20254;-61
2022/03/21 07:08:06;;;;;;;14.27;4.85;;;;;;;14.69;39.36;101260.41;5103073;28;20313;-59
2022/03/21 07:10:33;;;;;;;13.10;4.95;;;;;;;14.75;38.15;101256.00;5103035;28;20035;-61
2022/03/21 07:13:04;;;;;;;17.42;5.13;;;;;;;14.67;38.63;101250.84;5102857;28;20438;-61
2022/03/21 07:15:30;;;;;;;17.88;5.53;;;;;;;14.47;39.60;101251.06;5102935;28;20089;-59
2022/03/21 07:17:58;;;;;;;12.88;5.55;;;;;;;14.86;38.10;101208.88;5102326;28;20333;-60
2022/03/21 07:20:27;;;;;;;13.43;5.55;;;;;;;15.33;37.07;101250.78;5102802;28;20117;-61
2022/03/21 07:22:54;;;;;;;12.90;4.97;;;;;;;15.17;37.12;101216.25;5101564;28;20309;-61
2022/03/21 07:25:19;;;;;;;11.95;4.57;;;;;;;14.63;37.86;101257.00;5102492;28;20061;-60
2022/03/21 07:27:46;;;;;;;15.05;5.22;;;;;;;15.34;36.88;101240.31;5102441;28;20032;-60
2022/03/21 07:30:13;;;;;;;18.35;5.57;;;;;;;15.88;36.38;101242.03;5102032;28;20059;-60
2022/03/21 07:32:43;;;;;;;12.30;5.07;;;;;;;15.28;36.68;101235.22;5101534;28;20113;-61
2022/03/21 07:35:11;;;;;;;16.75;5.35;;;;;;;15.09;37.16;101198.09;5102114;28;20026;-60
2022/03/21 07:37:47;;;;;;;13.10;5.07;;;;;;;15.09;36.65;101198.09;5102713;28;20040;-61
2022/03/21 07:40:14;;;;;;;14.57;5.45;;;;;;;15.23;37.00;101237.00;5100781;28;20024;-60
2022/03/21 07:42:41;;;;;;;13.50;5.30;;;;;;;15.31;36.94;101236.91;5101473;28;20027;-60
2022/03/21 07:47:53;;;;;;;16.65;4.85;;;;;;;15.32;36.52;101236.88;5103303;28;20038;-59
2022/03/21 07:50:20;;;;;;;12.00;4.80;;;;;;;15.10;37.44;101240.72;5102284;28;20076;-60
2022/03/21 07:52:47;;;;;;;13.63;4.57;;;;;;;15.65;36.03;101234.59;5101946;28;20066;-59
2022/03/21 07:55:12;;;;;;;11.93;5.13;;;;;;;15.43;36.56;101241.91;5115969;28;20035;-59
2022/03/21 07:57:39;;;;;;;19.25;5.60;;;;;;;15.67;36.20;101237.19;5117690;28;20307;-60
2022/03/21 08:00:09;;;;;;;15.15;4.93;;;;;;;15.69;36.25;101233.66;5107550;28;20039;-59
2022/03/21 08:02:35;;;;;;;11.82;4.95;;;;;;;15.91;35.74;101237.66;5104307;28;20035;-59
2022/03/21 08:05:01;;;;;;;13.40;4.78;;;;;;;15.57;36.02;101233.84;5107865;28;20245;-60
2022/03/21 08:07:27;;;;;;;11.75;4.90;;;;;;;14.96;36.72;101247.00;5106677;28;20065;-59
2022/03/21 08:09:53;;;;;;;11.98;4.53;;;;;;;14.91;36.82;101240.13;5105818;28;20074;-60
2022/03/21 08:12:19;;;;;;;11.65;4.40;;;;;;;14.30;37.45;101233.03;5108753;28;20368;-60
2022/03/21 08:14:45;;;;;;;11.18;3.92;;;;;;;14.66;37.59;101250.88;5106070;28;20028;-60
2022/03/21 08:17:10;;;;;;;14.82;4.70;;;;;;;14.84;36.43;101242.81;5103313;28;20035;-60
2022/03/21 08:19:36;;;;;;;27.67;16.52;;;;;;;14.58;36.93;101253.56;5108391;28;20074;-60
2022/03/21 08:22:04;;;;;;;14.02;4.90;;;;;;;14.71;37.16;101237.78;5107190;28;20263;-59
2022/03/21 08:24:33;;;;;;;10.82;4.47;;;;;;;14.82;37.22;101248.91;5102148;28;20031;-59
2022/03/21 08:26:59;;;;;;;12.35;4.90;;;;;;;14.97;36.88;101245.25;5106615;28;20024;-59
2022/03/21 08:29:25;;;;;;;9.40;4.18;;;;;;;15.09;36.12;101249.41;5104447;28;20036;-59
2022/03/21 08:31:50;;;;;;;13.63;4.78;;;;;;;15.38;35.72;101246.38;5105219;28;20379;-60
2022/03/21 08:34:16;;;;;;;19.13;5.30;;;;;;;15.23;35.48;101234.41;5105735;28;20239;-60
2022/03/21 08:36:42;;;;;;;14.65;4.60;;;;;;;15.48;36.23;101244.47;5105661;28;20024;-59
2022/03/21 08:39:10;;;;;;;27.52;11.90;;;;;;;15.81;35.14;101244.81;5105552;28;20031;-59
2022/03/21 08:41:42;;;;;;;15.52;5.20;;;;;;;15.99;35.13;101233.13;5105810;28;20020;-60
2022/03/21 08:44:08;;;;;;;11.65;4.88;;;;;;;15.84;34.67;101237.75;5102204;28;20062;-59
2022/03/21 08:46:34;;;;;;;14.65;4.68;;;;;;;15.67;35.12;101224.97;5084324;28;20325;-60
2022/03/21 08:51:46;;;;;;;12.13;3.72;;;;;;;15.12;33.67;101249.38;5106996;28;20027;-59
2022/03/21 08:54:11;;;;;;;10.82;3.35;;;;;;;15.51;34.11;101224.38;5104910;28;20046;-60
2022/03/21 08:56:37;;;;;;;9.13;4.05;;;;;;;16.01;33.14;101231.38;5105088;28;20020;-59
2022/03/21 09:01:48;;;;;;;15.07;4.82;;;;;;;16.29;33.96;101223.84;5106996;28;20036;-61
2022/03/21 09:04:13;;;;;;;15.55;4.43;;;;;;;16.58;33.90;101229.38;5107161;28;20047;-58
2022/03/21 09:06:39;;;;;;;12.40;3.78;;;;;;;16.28;32.97;101229.97;5106872;28;20020;-59
2022/03/21 09:09:05;;;;;;;9.75;3.20;;;;;;;15.94;32.17;101216.69;5106961;28;20051;-58
2022/03/21 09:11:31;;;;;;;10.82;3.95;;;;;;;15.95;32.14;101221.06;5101853;28;20099;-58
2022/03/21 09:13:56;;;;;;;9.25;3.60;;;;;;;16.16;32.29;101222.34;5107211;28;20055;-59
2022/03/21 09:16:22;;;;;;;9.05;3.30;;;;;;;16.09;32.61;101212.91;5107144;28;20016;-60
2022/03/21 09:18:48;;;;;;;10.88;3.05;;;;;;;16.22;32.46;101217.03;5106336;28;20019;-59
2022/03/21 09:21:14;;;;;;;10.25;3.10;;;;;;;16.21;31.76;101217.91;5106877;28;20047;-60
2022/03/21 09:23:40;;;;;;;11.68;3.65;;;;;;;15.89;32.29;101214.19;5104562;28;20016;-59
2022/03/21 09:26:11;;;;;;;10.10;3.63;;;;;;;15.92;32.52;101211.50;5104559;28;20043;-60
2022/03/21 09:28:39;;;;;;;8.18;3.10;;;;;;;16.49;32.47;101212.97;5104419;28;20031;-60
2022/03/21 09:31:07;;;;;;;8.10;2.92;;;;;;;15.83;32.15;101216.88;5104065;28;20028;-59
2022/03/21 09:33:36;;;;;;;8.40;3.17;;;;;;;15.55;32.81;101206.91;5104200;28;20045;-60
2022/03/21 09:36:04;;;;;;;7.40;3.13;;;;;;;15.42;32.91;101206.28;5105934;28;20028;-59
2022/03/21 09:38:30;;;;;;;9.57;3.38;;;;;;;15.35;33.51;101197.66;5104158;28;20247;-58
2022/03/21 09:40:57;;;;;;;9.70;3.00;;;;;;;15.11;33.22;101209.38;5106538;28;20024;-59
2022/03/21 09:43:26;;;;;;;7.57;3.45;;;;;;;14.79;33.38;101210.72;5104132;28;20052;-60
2022/03/21 09:45:56;;;;;;;10.80;3.30;;;;;;;14.41;34.49;101186.00;5101522;28;20035;-59
2022/03/21 09:48:25;;;;;;;10.50;2.72;;;;;;;14.42;34.61;101215.53;5103858;28;20340;-59
2022/03/21 09:50:52;;;;;;;13.80;5.03;;;;;;;14.32;33.78;101205.22;5103660;28;20032;-59
2022/03/21 09:53:18;;;;;;;71.80;37.15;;;;;;;14.06;34.27;101191.63;5102178;28;20024;-58
2022/03/21 09:55:45;;;;;;;11.00;3.47;;;;;;;13.96;33.81;101207.34;5102657;28;20065;-59
2022/03/21 09:58:10;;;;;;;12.00;3.15;;;;;;;13.95;34.40;101207.38;5106006;28;20202;-59
2022/03/21 10:00:38;;;;;;;8.75;3.38;;;;;;;13.96;35.40;101209.09;5103653;28;20024;-59
2022/03/21 10:03:04;;;;;;;11.73;3.55;;;;;;;13.72;36.14;101212.81;5103623;28;20336;-58
2022/03/21 10:05:42;;;;;;;11.52;4.28;;;;;;;13.28;35.32;101155.06;5103600;28;20027;-60
2022/03/21 10:08:12;;;;;;;9.82;2.90;;;;;;;13.22;34.43;101147.31;5103439;28;20042;-59
2022/03/21 10:10:38;;;;;;;10.70;3.00;;;;;;;13.63;34.99;101204.22;5105549;28;20016;-59
2022/03/21 10:13:09;;;;;;;8.75;2.80;;;;;;;13.61;35.48;101194.69;5103452;28;20217;-59
2022/03/21 10:15:36;;;;;;;10.47;2.87;;;;;;;13.39;35.05;101207.03;5103083;28;20080;-59
2022/03/21 10:18:09;;;;;;;7.35;2.67;;;;;;;13.47;34.02;101202.66;5104414;28;20028;-60
2022/03/21 10:20:36;;;;;;;8.57;2.58;;;;;;;13.40;33.97;101212.25;5124053;28;20023;-59
2022/03/21 10:23:19;;;;;;;6.43;3.53;;;;;;;13.44;34.57;101213.09;5124054;28;20023;-59
2022/03/21 10:25:46;;;;;;;5.35;2.40;;;;;;;13.45;34.81;101193.97;5092350;28;20029;-60
2022/03/21 10:28:32;;;;;;;13.32;3.30;;;;;;;13.57;34.22;101208.63;5094447;28;20035;-59
2022/03/21 10:30:59;;;;;;;12.68;4.28;;;;;;;13.61;34.93;101200.78;5112927;28;20335;-59
2022/03/21 10:33:25;;;;;;;13.20;4.68;;;;;;;13.57;34.36;101201.69;5123842;28;20030;-61
2022/03/21 10:35:50;;;;;;;8.05;3.10;;;;;;;13.67;34.57;101197.25;5123846;28;20247;-60
2022/03/21 10:38:33;;;;;;;9.20;3.25;;;;;;;13.45;33.32;101149.72;5103337;28;20024;-60
2022/03/21 10:41:09;;;;;;;8.45;2.75;;;;;;;13.70;33.45;101201.56;5103033;28;20098;-61
2022/03/21 10:43:36;;;;;;;11.63;2.65;;;;;;;13.75;33.90;101197.16;5103213;28;20400;-60
2022/03/21 10:46:02;;;;;;;9.73;2.78;;;;;;;13.80;34.05;101192.78;5103816;28;20324;-59
2022/03/21 10:48:34;;;;;;;7.90;2.88;;;;;;;13.67;34.18;101204.19;5107801;28;20023;-59
2022/03/21 10:51:02;;;;;;;8.52;3.30;;;;;;;13.70;35.11;101191.16;5122450;28;20362;-59
2022/03/21 10:53:32;;;;;;;7.47;2.70;;;;;;;13.75;33.40;101198.06;5102320;28;20191;-59
2022/03/21 10:55:58;;;;;;;7.38;2.70;;;;;;;13.77;34.07;101198.03;5100882;28;20028;-60
2022/03/21 10:58:41;;;;;;;9.32;2.70;;;;;;;13.41;34.09;101150.63;5102503;28;20024;-60
2022/03/21 11:01:14;;;;;;;9.30;3.10;;;;;;;13.62;33.83;101199.91;5100889;28;20016;-59
2022/03/21 11:03:41;;;;;;;9.35;3.20;;;;;;;13.65;33.72;101199.00;5103602;28;20031;-59
2022/03/21 11:06:11;;;;;;;6.20;2.50;;;;;;;13.63;33.49;101198.16;5103653;28;20020;-59
2022/03/21 11:08:37;;;;;;;8.30;3.38;;;;;;;13.68;34.19;101198.09;5102427;28;20163;-59
2022/03/21 11:11:04;;;;;;;9.88;2.95;;;;;;;13.73;34.37;101198.94;5103124;28;20243;-59
2022/03/21 11:13:31;;;;;;;7.15;2.30;;;;;;;13.62;35.26;101186.91;5102716;28;20047;-59
2022/03/21 11:15:57;;;;;;;4.32;2.22;;;;;;;13.62;33.54;101201.63;5102900;28;20024;-59
2022/03/21 11:18:25;;;;;;;7.38;2.42;;;;;;;13.63;33.15;101199.00;5102683;28;20043;-59
2022/03/21 11:20:52;;;;;;;8.07;2.90;;;;;;;13.34;33.70;101138.53;5102769;28;20016;-59
2022/03/21 11:23:18;;;;;;;9.07;2.55;;;;;;;13.60;33.31;101193.00;5102769;28;20028;-59
2022/03/21 11:25:55;;;;;;;7.63;2.40;;;;;;;13.57;33.17;101193.03;5102598;28;20062;-59
2022/03/21 11:28:38;;;;;;;6.55;2.15;;;;;;;13.63;33.89;101188.59;5102607;28;20050;-60
2022/03/21 11:31:06;;;;;;;7.53;2.50;;;;;;;13.52;33.55;101198.25;5106276;28;20024;-59
2022/03/21 11:33:31;;;;;;;8.70;2.20;;;;;;;13.53;34.37;101192.16;5107039;28;20092;-59
2022/03/21 11:36:07;;;;;;;5.03;2.30;;;;;;;13.17;34.24;101147.38;5106069;28;20031;-60
2022/03/21 11:38:45;;;;;;;5.85;2.17;;;;;;;12.94;33.57;101150.16;5103587;28;20087;-59
2022/03/21 11:41:10;;;;;;;5.95;2.50;;;;;;;13.28;34.30;101197.56;5125636;28;20023;-59
2022/03/21 11:43:45;;;;;;;5.40;2.10;;;;;;;13.04;33.76;101159.59;5127100;28;20092;-60
2022/03/21 11:46:25;;;;;;;10.07;3.08;;;;;;;13.26;34.52;101191.50;5116938;27;20016;-59
2022/03/21 11:48:52;;;;;;;5.72;2.20;;;;;;;13.29;35.19;101193.22;5106475;28;20065;-59
2022/03/21 11:51:17;;;;;;;9.40;2.58;;;;;;;13.24;34.50;101195.88;5106447;28;20229;-59